Time;durP1;ratioP1;P1;durP2;ratioP2;P2;SDS_P1;SDS_P2;PMS_P1;PMS_P2;Temp;Humidity;BMP_temperature;BMP_pressure;BME280_temperature;BME280_humidity;BME280_pressure;Samples;Min_cycle;Max_cycle;Signal;HPM_P1;HPM_P2
2022/03/06 00:00:07;;;;;;;;;;;;;;;0.61;100.00;98824.41;10360496;28;19968;-77
2022/03/06 00:05:14;;;;;;;;;;;;;;;0.64;100.00;98816.81;10333009;28;20351;-76
2022/03/06 00:10:14;;;;;;;;;;;;;;;0.60;100.00;98822.81;10313604;28;19930;-80
2022/03/06 00:15:18;;;;;;;;;;;;;;;0.60;100.00;98810.41;10334410;28;19932;-79
2022/03/06 00:20:22;;;;;;;;;;;;;;;0.65;100.00;98813.13;10365454;28;19921;-79
2022/03/06 00:25:26;;;;;;;;;;;;;;;0.60;100.00;98807.75;10313949;28;19941;-77
2022/03/06 00:30:27;;;;;;;;;;;;;;;0.58;100.00;98809.84;10322175;28;19975;-79
2022/03/06 00:35:28;;;;;;;;;;;;;;;0.61;100.00;98809.34;10356806;28;20011;-76
2022/03/06 00:40:29;;;;;;;;;;;;;;;0.49;100.00;98814.75;10350920;28;19926;-77
2022/03/06 00:45:31;;;;;;;;;;;;;;;0.43;100.00;98820.22;10339288;28;20407;-76
2022/03/06 00:50:31;;;;;;;;;;;;;;;0.36;100.00;98823.00;10332143;28;19930;-76
2022/03/06 00:55:33;;;;;;;;;;;;;;;0.27;100.00;98809.47;10330115;28;19926;-76
2022/03/06 01:00:36;;;;;;;;;;;;;;;0.18;100.00;98810.91;10349971;28;19933;-77
2022/03/06 01:05:36;;;;;;;;;;;;;;;0.10;100.00;98813.97;10331307;28;19925;-78
2022/03/06 01:10:38;;;;;;;;;;;;;;;0.06;100.00;98812.03;10359163;28;19926;-75
2022/03/06 01:15:38;;;;;;;;;;;;;;;-0.11;100.00;98812.81;10356271;28;19932;-77
2022/03/06 01:20:40;;;;;;;;;;;;;;;-0.19;100.00;98813.22;10333452;28;20474;-76
2022/03/06 01:25:40;;;;;;;;;;;;;;;-0.25;100.00;98810.75;10358982;28;19960;-76
2022/03/06 01:30:40;;;;;;;;;;;;;;;-0.29;100.00;98816.50;10350633;28;19987;-77
2022/03/06 01:35:41;;;;;;;;;;;;;;;-0.25;100.00;98818.66;10360073;28;20036;-77
2022/03/06 01:40:41;;;;;;;;;;;;;;;-0.45;100.00;98811.22;10347158;28;19925;-76
2022/03/06 01:45:43;;;;;;;;;;;;;;;-0.49;100.00;98813.53;10341127;28;20793;-76
2022/03/06 01:50:44;;;;;;;;;;;;;;;-0.58;100.00;98820.22;10366536;28;20013;-77
2022/03/06 01:55:45;;;;;;;;;;;;;;;-0.78;100.00;98819.84;10367017;28;19926;-78
2022/03/06 02:00:48;;;;;;;;;;;;;;;-0.97;100.00;98822.69;10370856;28;20484;-79
2022/03/06 02:05:49;;;;;;;;;;;;;;;-1.06;100.00;98823.28;10367421;28;20041;-78
2022/03/06 02:10:53;;;;;;;;;;;;;;;-1.23;100.00;98828.47;10383386;28;20171;-80
2022/03/06 02:15:55;;;;;;;;;;;;;;;-1.29;100.00;98830.19;10381825;28;19929;-77
2022/03/06 02:20:55;;;;;;;;;;;;;;;-1.37;100.00;98814.78;10379706;28;20033;-77
2022/03/06 02:25:57;;;;;;;;;;;;;;;-1.41;100.00;98828.63;10337722;28;19992;-77
2022/03/06 02:30:58;;;;;;;;;;;;;;;-1.42;100.00;98832.28;10338667;28;19963;-77
2022/03/06 02:35:59;;;;;;;;;;;;;;;-1.44;100.00;98830.69;10355138;28;20000;-77
2022/03/06 02:40:59;;;;;;;;;;;;;;;-1.51;100.00;98832.63;10344133;28;20020;-76
2022/03/06 02:46:00;;;;;;;;;;;;;;;-1.55;100.00;98828.09;10322664;28;20020;-78
2022/03/06 02:51:00;;;;;;;;;;;;;;;-1.65;100.00;98831.25;10303161;28;20033;-75
2022/03/06 02:56:02;;;;;;;;;;;;;;;-1.69;100.00;98834.59;10332159;28;20687;-77
2022/03/06 03:01:03;;;;;;;;;;;;;;;-1.73;100.00;98823.75;10341843;28;19930;-78
2022/03/06 03:06:06;;;;;;;;;;;;;;;-1.76;100.00;98819.72;10331333;28;19926;-76
2022/03/06 03:11:06;;;;;;;;;;;;;;;-1.70;100.00;98830.38;10322217;28;19930;-75
2022/03/06 03:16:07;;;;;;;;;;;;;;;-1.78;100.00;98829.69;10329291;28;20668;-79
2022/03/06 03:21:09;;;;;;;;;;;;;;;-1.81;100.00;98834.63;10306792;28;19926;-77
2022/03/06 03:26:09;;;;;;;;;;;;;;;-1.80;100.00;98841.47;10359813;28;20242;-76
2022/03/06 03:31:10;;;;;;;;;;;;;;;-1.81;100.00;98843.31;10332845;28;19932;-78
2022/03/06 03:36:10;;;;;;;;;;;;;;;-1.89;100.00;98842.84;10321815;28;19929;-77
2022/03/06 03:41:11;;;;;;;;;;;;;;;-1.91;100.00;98845.69;10339498;28;19925;-76
2022/03/06 03:46:11;;;;;;;;;;;;;;;-1.93;100.00;98849.56;10332867;28;19921;-77
2022/03/06 03:51:11;;;;;;;;;;;;;;;-1.90;100.00;98844.66;10336956;28;20054;-77
2022/03/06 03:56:12;;;;;;;;;;;;;;;-1.81;100.00;98842.50;10369673;28;20032;-78
2022/03/06 04:01:13;;;;;;;;;;;;;;;-1.74;100.00;98851.88;10328816;28;20027;-76
2022/03/06 04:12:17;;;;;;;;;;;;;;;-1.60;100.00;98854.28;10362461;28;20354;-78
2022/03/06 04:17:17;;;;;;;;;;;;;;;-1.56;100.00;98850.16;10332638;28;19945;-78
2022/03/06 04:22:18;;;;;;;;;;;;;;;-1.54;100.00;98856.00;10333169;28;19938;-77
2022/03/06 04:27:18;;;;;;;;;;;;;;;-1.44;100.00;98869.38;10341218;28;19925;-81
2022/03/06 04:32:19;;;;;;;;;;;;;;;-1.36;100.00;98870.88;10354369;28;19933;-77
2022/03/06 04:37:19;;;;;;;;;;;;;;;-1.29;100.00;98879.41;10329329;28;19980;-77
2022/03/06 04:42:19;;;;;;;;;;;;;;;-1.25;100.00;98877.94;10346448;28;19921;-78
2022/03/06 04:47:20;;;;;;;;;;;;;;;-1.19;100.00;98875.19;10344249;28;19922;-79
2022/03/06 04:52:22;;;;;;;;;;;;;;;-1.15;100.00;98881.59;10345711;28;19937;-77
2022/03/06 04:57:23;;;;;;;;;;;;;;;-1.12;100.00;98882.16;10350227;28;20040;-78
2022/03/06 05:02:23;;;;;;;;;;;;;;;-1.07;100.00;98885.69;10354234;28;20799;-79
2022/03/06 05:07:23;;;;;;;;;;;;;;;-1.09;100.00;98885.13;10358506;28;19925;-78
2022/03/06 05:12:24;;;;;;;;;;;;;;;-1.12;100.00;98885.59;10353348;28;20431;-77
2022/03/06 05:17:24;;;;;;;;;;;;;;;-1.18;100.00;98884.69;10355622;28;19979;-81
2022/03/06 05:22:26;;;;;;;;;;;;;;;-1.18;100.00;98886.53;10261520;23;19947;-77
2022/03/06 05:27:27;;;;;;;;;;;;;;;-1.28;100.00;98887.13;10284317;28;19997;-79
2022/03/06 05:32:29;;;;;;;;;;;;;;;-1.29;100.00;98892.59;10287130;28;19923;-81
2022/03/06 05:37:35;;;;;;;;;;;;;;;-1.33;100.00;98899.34;10309839;28;19958;-78
2022/03/06 05:42:35;;;;;;;;;;;;;;;-1.29;100.00;98887.31;10248828;28;19931;-78
2022/03/06 05:47:36;;;;;;;;;;;;;;;-1.22;100.00;98901.19;10287236;28;20026;-77
2022/03/06 05:52:36;;;;;;;;;;;;;;;-1.18;100.00;98902.34;10254734;28;20443;-77
2022/03/06 05:57:37;;;;;;;;;;;;;;;-1.17;100.00;98902.09;10229509;28;19927;-78
2022/03/06 06:02:38;;;;;;;;;;;;;;;-1.16;100.00;98906.31;10212658;28;20013;-82
2022/03/06 06:07:38;;;;;;;;;;;;;;;-1.24;100.00;98906.69;10263094;28;19921;-77
2022/03/06 06:12:38;;;;;;;;;;;;;;;-1.35;100.00;98909.31;10220455;28;20539;-79
2022/03/06 06:17:39;;;;;;;;;;;;;;;-1.31;100.00;98913.88;10195800;28;20381;-78
2022/03/06 06:22:39;;;;;;;;;;;;;;;-1.32;100.00;98916.75;10209068;28;19930;-78
2022/03/06 06:27:40;;;;;;;;;;;;;;;-1.20;100.00;98920.16;10226763;28;19927;-78
2022/03/06 06:32:41;;;;;;;;;;;;;;;-1.18;100.00;98916.28;10233643;28;20014;-80
2022/03/06 06:37:41;;;;;;;;;;;;;;;-1.11;100.00;98921.41;10197191;28;19931;-77
2022/03/06 06:42:44;;;;;;;;;;;;;;;-0.93;100.00;98920.47;10226935;28;19941;-76
2022/03/06 06:47:45;;;;;;;;;;;;;;;-0.54;100.00;98912.84;10235656;28;20669;-77
2022/03/06 06:52:46;;;;;;;;;;;;;;;-0.17;100.00;98907.97;10206816;28;19965;-79
2022/03/06 06:57:47;;;;;;;;;;;;;;;0.13;100.00;98919.03;10215574;28;20028;-78
2022/03/06 07:02:47;;;;;;;;;;;;;;;0.02;100.00;98911.19;10219064;28;19965;-77
2022/03/06 07:07:47;;;;;;;;;;;;;;;0.20;100.00;98914.41;10195139;28;20407;-78
2022/03/06 07:12:51;;;;;;;;;;;;;;;0.31;100.00;98920.63;10242464;28;19955;-81
2022/03/06 07:17:51;;;;;;;;;;;;;;;0.09;100.00;98925.84;10278200;28;19932;-78
2022/03/06 07:22:52;;;;;;;;;;;;;;;0.38;100.00;98920.47;10218448;28;19933;-77
2022/03/06 07:27:53;;;;;;;;;;;;;;;0.37;100.00;98929.44;10233186;28;19923;-79
2022/03/06 07:32:54;;;;;;;;;;;;;;;0.92;100.00;98926.03;10214845;28;20536;-80
2022/03/06 07:37:55;;;;;;;;;;;;;;;0.70;100.00;98929.41;10249889;28;20423;-78
2022/03/06 07:42:55;;;;;;;;;;;;;;;1.03;100.00;98935.69;10214955;28;20009;-78
2022/03/06 07:47:56;;;;;;;;;;;;;;;1.17;100.00;98928.19;10251537;28;19963;-78
2022/03/06 07:52:56;;;;;;;;;;;;;;;1.25;100.00;98943.63;10215915;28;20682;-80
2022/03/06 07:57:57;;;;;;;;;;;;;;;1.25;100.00;98935.69;10215383;28;19962;-78
2022/03/06 08:02:58;;;;;;;;;;;;;;;1.00;100.00;98944.06;10272641;28;19915;-80
2022/03/06 08:07:58;;;;;;;;;;;;;;;1.20;100.00;98947.00;10282056;28;19980;-80
2022/03/06 08:12:59;;;;;;;;;;;;;;;1.21;100.00;98948.59;10307855;28;19968;-80
2022/03/06 08:17:59;;;;;;;;;;;;;;;1.19;100.00;98953.34;10244466;28;19969;-79
2022/03/06 08:23:01;;;;;;;;;;;;;;;1.26;100.00;98955.78;10272741;28;19936;-78
2022/03/06 08:28:02;;;;;;;;;;;;;;;1.37;100.00;98955.69;10206772;28;19937;-80
2022/03/06 08:33:03;;;;;;;;;;;;;;;1.85;100.00;98955.94;10244136;28;19931;-79
2022/03/06 08:38:04;;;;;;;;;;;;;;;1.69;100.00;98952.34;10247475;28;19942;-77
2022/03/06 08:43:04;;;;;;;;;;;;;;;2.00;100.00;98950.78;10282755;28;19989;-76
2022/03/06 08:48:06;;;;;;;;;;;;;;;2.31;100.00;98948.44;10297613;28;19949;-77
2022/03/06 08:53:08;;;;;;;;;;;;;;;2.24;100.00;98944.13;10372604;28;19925;-79
2022/03/06 08:58:08;;;;;;;;;;;;;;;2.38;100.00;98944.53;10293959;28;19913;-79
2022/03/06 09:03:13;;;;;;;;;;;;;;;2.81;93.29;98943.50;10276040;28;19923;-78
2022/03/06 09:08:13;;;;;;;;;;;;;;;3.48;87.54;98938.53;10257259;28;19932;-78
2022/03/06 09:13:14;;;;;;;;;;;;;;;3.39;77.97;98943.56;10280961;28;19923;-79
2022/03/06 09:18:16;;;;;;;;;;;;;;;3.68;76.92;98939.41;10263692;28;19927;-77
2022/03/06 09:23:18;;;;;;;;;;;;;;;3.85;67.50;98933.06;10279910;28;20629;-80
2022/03/06 09:28:24;;;;;;;;;;;;;;;3.89;62.46;98931.47;10289586;28;19922;-80
2022/03/06 09:33:24;;;;;;;;;;;;;;;3.63;66.26;98933.25;10274771;28;19980;-80
2022/03/06 09:38:27;;;;;;;;;;;;;;;3.56;64.72;98936.16;10238151;28;19927;-80
2022/03/06 09:43:28;;;;;;;;;;;;;;;3.06;59.35;98939.41;10267584;28;19928;-79
2022/03/06 09:48:30;;;;;;;;;;;;;;;3.02;59.59;98938.34;10321860;28;19917;-80
2022/03/06 09:53:35;;;;;;;;;;;;;;;2.98;59.39;98932.72;10249907;28;19941;-81
2022/03/06 09:58:43;;;;;;;;;;;;;;;3.16;58.06;98931.50;10215879;28;19927;-78
2022/03/06 10:03:43;;;;;;;;;;;;;;;3.22;56.81;98935.78;10234148;28;19926;-79
2022/03/06 10:08:45;;;;;;;;;;;;;;;3.41;60.37;98938.78;10230781;28;20048;-77
2022/03/06 10:13:45;;;;;;;;;;;;;;;3.30;56.00;98935.28;10243921;28;20014;-79
2022/03/06 10:18:47;;;;;;;;;;;;;;;2.99;56.58;98925.56;10268435;23;19928;-79
2022/03/06 10:23:52;;;;;;;;;;;;;;;3.29;57.57;98935.53;10215118;28;19923;-79
2022/03/06 10:28:55;;;;;;;;;;;;;;;3.39;57.62;98935.59;10272970;28;20014;-78
2022/03/06 10:33:56;;;;;;;;;;;;;;;3.30;56.35;98943.25;10254314;28;19958;-77
2022/03/06 10:39:00;;;;;;;;;;;;;;;3.38;56.30;98936.63;10207296;28;19927;-79
2022/03/06 10:44:03;;;;;;;;;;;;;;;3.32;55.70;98929.72;10251652;28;20384;-78
2022/03/06 10:49:12;;;;;;;;;;;;;;;3.41;54.87;98931.63;10186267;28;20275;-78
2022/03/06 10:54:16;;;;;;;;;;;;;;;3.39;57.46;98924.97;10278471;28;19970;-80
2022/03/06 10:59:20;;;;;;;;;;;;;;;3.66;58.48;98928.25;10230568;28;20394;-78
2022/03/06 11:04:22;;;;;;;;;;;;;;;3.53;58.74;98926.06;10273382;28;19965;-78
2022/03/06 11:09:23;;;;;;;;;;;;;;;3.65;57.22;98921.31;10270567;28;19963;-78
2022/03/06 11:14:25;;;;;;;;;;;;;;;3.39;56.33;98919.66;10202742;28;19930;-78
2022/03/06 11:19:26;;;;;;;;;;;;;;;3.13;55.11;98916.09;10213925;28;19930;-82
2022/03/06 11:24:29;;;;;;;;;;;;;;;3.40;55.88;98916.75;10282864;28;19934;-79
2022/03/06 11:29:48;;;;;;;;;;;;;;;3.55;54.58;98909.88;10292407;28;19927;-79
2022/03/06 11:34:51;;;;;;;;;;;;;;;3.79;55.28;98920.84;10215932;28;19962;-79
2022/03/06 11:39:56;;;;;;;;;;;;;;;3.46;53.43;98916.75;10364705;28;19923;-80
2022/03/06 11:44:57;;;;;;;;;;;;;;;3.65;53.08;98917.88;10231380;28;20031;-78
2022/03/06 11:49:59;;;;;;;;;;;;;;;3.68;54.44;98904.88;10380354;28;20003;-77
2022/03/06 11:55:00;;;;;;;;;;;;;;;3.45;54.42;98910.66;10299297;28;19926;-80
2022/03/06 12:00:13;;;;;;;;;;;;;;;3.53;54.30;98906.69;10300938;28;19942;-79
2022/03/06 12:05:16;;;;;;;;;;;;;;;3.72;56.51;98905.94;10237317;28;19915;-80
2022/03/06 12:10:18;;;;;;;;;;;;;;;3.97;58.48;98901.75;10244601;28;19923;-78
2022/03/06 12:15:25;;;;;;;;;;;;;;;3.36;52.90;98905.03;10210839;28;19978;-77
2022/03/06 12:20:27;;;;;;;;;;;;;;;3.55;54.71;98901.91;10305248;28;19928;-79
2022/03/06 12:25:33;;;;;;;;;;;;;;;3.52;56.79;98902.44;10230819;28;19927;-80
2022/03/06 12:30:35;;;;;;;;;;;;;;;3.36;54.77;98898.94;10270276;28;19944;-79
2022/03/06 12:35:35;;;;;;;;;;;;;;;3.12;54.65;98896.75;10184772;28;19923;-79
2022/03/06 12:40:35;;;;;;;;;;;;;;;3.47;56.24;98891.81;10206747;28;19923;-79
2022/03/06 12:45:36;;;;;;;;;;;;;;;3.42;52.99;98889.94;10271502;28;19931;-80
2022/03/06 12:50:41;;;;;;;;;;;;;;;3.52;55.03;98879.38;10196633;28;19937;-79
2022/03/06 12:55:41;;;;;;;;;;;;;;;3.57;51.85;98881.25;10255206;28;19952;-78
2022/03/06 13:00:41;;;;;;;;;;;;;;;3.57;51.27;98879.38;10222638;28;19935;-78
2022/03/06 13:05:44;;;;;;;;;;;;;;;3.81;53.82;98862.97;10289683;28;20014;-79
2022/03/06 13:10:46;;;;;;;;;;;;;;;3.75;52.02;98866.66;10333507;28;20304;-79
2022/03/06 13:15:48;;;;;;;;;;;;;;;3.56;50.88;98861.84;10207509;28;19935;-79
2022/03/06 13:20:49;;;;;;;;;;;;;;;3.79;51.94;98867.75;10279011;28;19935;-80
2022/03/06 13:25:49;;;;;;;;;;;;;;;3.54;51.76;98863.16;10197167;28;19970;-78
2022/03/06 13:30:49;;;;;;;;;;;;;;;3.37;51.79;98866.03;10207602;28;19966;-79
2022/03/06 13:35:51;;;;;;;;;;;;;;;3.06;53.32;98863.28;10206325;28;19927;-80
2022/03/06 13:40:54;;;;;;;;;;;;;;;3.07;52.47;98866.75;10265949;28;19927;-82
2022/03/06 13:45:56;;;;;;;;;;;;;;;3.10;52.72;98866.22;10226289;28;19932;-78
2022/03/06 13:50:59;;;;;;;;;;;;;;;3.01;51.49;98863.25;10262677;28;19938;-80
2022/03/06 13:56:00;;;;;;;;;;;;;;;3.02;51.74;98872.03;10268222;28;19958;-79
2022/03/06 14:01:02;;;;;;;;;;;;;;;3.16;51.00;98861.75;10192043;28;19927;-79
2022/03/06 14:06:04;;;;;;;;;;;;;;;2.83;54.47;98861.06;10331679;28;20379;-80
2022/03/06 14:11:09;;;;;;;;;;;;;;;2.83;54.70;98869.00;10193471;28;19931;-80
2022/03/06 14:16:23;;;;;;;;;;;;;;;2.71;56.75;98869.22;10289843;28;20760;-78
2022/03/06 14:21:27;;;;;;;;;;;;;;;2.63;57.63;98867.06;10205222;28;20296;-80
2022/03/06 14:26:28;;;;;;;;;;;;;;;2.39;57.14;98864.00;10211119;28;19934;-78
2022/03/06 14:31:31;;;;;;;;;;;;;;;2.48;58.02;98859.03;10313156;28;19927;-78
2022/03/06 14:36:33;;;;;;;;;;;;;;;2.56;58.67;98871.78;10327384;28;20060;-78
2022/03/06 14:41:35;;;;;;;;;;;;;;;2.41;57.12;98872.50;10286416;28;19937;-78
2022/03/06 14:46:35;;;;;;;;;;;;;;;2.51;56.09;98869.91;10204702;28;20010;-78
2022/03/06 14:51:36;;;;;;;;;;;;;;;2.39;56.66;98869.31;10268779;28;20065;-77
2022/03/06 14:56:38;;;;;;;;;;;;;;;2.43;56.76;98874.88;10338939;28;19928;-79
2022/03/06 15:01:40;;;;;;;;;;;;;;;2.27;55.21;98880.06;10354256;28;19929;-77
2022/03/06 15:06:41;;;;;;;;;;;;;;;2.40;56.74;98881.50;10220282;28;19946;-78
2022/03/06 15:11:43;;;;;;;;;;;;;;;2.26;58.36;98873.16;10220914;28;19966;-78
2022/03/06 15:16:43;;;;;;;;;;;;;;;2.04;60.71;98869.84;10222356;28;19915;-78
2022/03/06 15:21:44;;;;;;;;;;;;;;;2.05;62.86;98873.28;10235565;28;19933;-79
2022/03/06 15:26:46;;;;;;;;;;;;;;;1.92;64.32;98877.94;10259488;28;19957;-80
2022/03/06 15:31:48;;;;;;;;;;;;;;;2.05;68.59;98876.72;10224111;28;20359;-83
2022/03/06 15:36:51;;;;;;;;;;;;;;;1.92;67.59;98877.13;10278995;28;19961;-76
2022/03/06 15:41:52;;;;;;;;;;;;;;;1.81;71.89;98878.09;10223218;28;20832;-79
2022/03/06 15:46:54;;;;;;;;;;;;;;;1.43;75.00;98883.28;10188222;28;19927;-78
2022/03/06 15:51:54;;;;;;;;;;;;;;;1.52;77.16;98881.00;10276912;28;19934;-78
2022/03/06 15:56:55;;;;;;;;;;;;;;;1.41;74.18;98888.03;10180558;28;19945;-78
2022/03/06 16:01:56;;;;;;;;;;;;;;;1.27;76.61;98878.84;10224132;28;19952;-78
2022/03/06 16:06:57;;;;;;;;;;;;;;;1.41;78.47;98888.03;10288030;28;19941;-78
2022/03/06 16:11:57;;;;;;;;;;;;;;;1.28;81.50;98888.41;10273518;28;19927;-78
2022/03/06 16:16:57;;;;;;;;;;;;;;;1.27;82.70;98888.63;10193321;28;19923;-79
2022/03/06 16:21:59;;;;;;;;;;;;;;;1.23;83.82;98898.91;10260297;28;20473;-79
2022/03/06 16:27:00;;;;;;;;;;;;;;;1.19;84.91;98887.25;10197746;28;19978;-79
2022/03/06 16:32:04;;;;;;;;;;;;;;;1.25;88.09;98888.88;10258680;28;19927;-78
2022/03/06 16:37:07;;;;;;;;;;;;;;;1.22;86.55;98899.97;10329290;28;19933;-77
2022/03/06 16:42:07;;;;;;;;;;;;;;;1.28;86.49;98899.00;10259820;28;19929;-79
2022/03/06 16:47:08;;;;;;;;;;;;;;;1.19;86.38;98907.56;10293775;28;19921;-80
2022/03/06 16:52:08;;;;;;;;;;;;;;;1.03;85.94;98904.75;10268613;28;19923;-78
2022/03/06 16:57:17;;;;;;;;;;;;;;;0.93;85.92;98912.56;10266813;28;19927;-78
2022/03/06 17:02:18;;;;;;;;;;;;;;;0.93;89.87;98911.75;10279243;28;20061;-79
2022/03/06 17:07:18;;;;;;;;;;;;;;;0.96;89.66;98916.56;10263501;28;19923;-77
2022/03/06 17:12:21;;;;;;;;;;;;;;;0.88;86.17;98922.25;10220010;28;19934;-77
2022/03/06 17:17:22;;;;;;;;;;;;;;;0.78;84.73;98923.72;10219601;28;20049;-77
2022/03/06 17:22:23;;;;;;;;;;;;;;;0.80;83.10;98928.75;10196890;28;20461;-76
2022/03/06 17:27:23;;;;;;;;;;;;;;;0.70;81.80;98932.03;10244130;28;20411;-76
2022/03/06 17:32:25;;;;;;;;;;;;;;;0.59;78.23;98940.88;10191447;28;19945;-76
2022/03/06 17:37:26;;;;;;;;;;;;;;;0.61;78.75;98945.91;10195356;28;19986;-77
2022/03/06 17:42:37;;;;;;;;;;;;;;;0.61;77.81;98949.34;10190775;28;19985;-84
2022/03/06 17:47:42;;;;;;;;;;;;;;;0.49;78.11;98954.72;10318805;28;20019;-78
2022/03/06 17:52:42;;;;;;;;;;;;;;;0.55;82.30;98964.34;10257500;28;20046;-78
2022/03/06 17:57:43;;;;;;;;;;;;;;;0.48;78.54;98965.53;10198623;28;19950;-79
2022/03/06 18:02:46;;;;;;;;;;;;;;;0.42;77.22;98964.63;10247836;28;19970;-79
2022/03/06 18:07:47;;;;;;;;;;;;;;;0.48;77.31;98968.16;10196448;28;19930;-79
2022/03/06 18:12:47;;;;;;;;;;;;;;;0.40;76.65;98971.22;10261823;28;20660;-79
2022/03/06 18:17:48;;;;;;;;;;;;;;;0.35;77.86;98974.56;10274523;28;19963;-80
2022/03/06 18:22:49;;;;;;;;;;;;;;;0.42;83.43;98982.31;10271858;28;19931;-82
2022/03/06 18:27:50;;;;;;;;;;;;;;;0.35;78.76;98979.03;10220537;28;19923;-80
2022/03/06 18:32:53;;;;;;;;;;;;;;;0.24;77.39;98985.97;10347348;28;19953;-81
2022/03/06 18:37:54;;;;;;;;;;;;;;;0.28;81.17;98982.66;10299906;28;19935;-82
2022/03/06 18:42:55;;;;;;;;;;;;;;;0.21;84.19;98982.00;10364295;28;19913;-82
2022/03/06 18:47:55;;;;;;;;;;;;;;;0.11;82.28;98986.28;10310933;28;19927;-78
2022/03/06 18:52:55;;;;;;;;;;;;;;;-0.03;82.52;98991.06;10273654;28;20873;-79
2022/03/06 18:57:56;;;;;;;;;;;;;;;0.04;82.90;98996.19;10178454;28;19943;-80
2022/03/06 19:02:57;;;;;;;;;;;;;;;0.07;83.04;99007.06;10197436;28;19935;-80
2022/03/06 19:07:57;;;;;;;;;;;;;;;0.02;83.70;98996.44;10277106;28;19934;-79
2022/03/06 19:13:00;;;;;;;;;;;;;;;-0.01;86.50;99010.88;10382526;28;19936;-76
2022/03/06 19:18:01;;;;;;;;;;;;;;;-0.04;82.81;99018.47;10183850;28;19927;-77
2022/03/06 19:23:03;;;;;;;;;;;;;;;-0.05;83.92;99019.50;10177231;28;20003;-76
2022/03/06 19:28:04;;;;;;;;;;;;;;;-0.10;81.96;99019.41;10235227;28;20006;-77
2022/03/06 19:33:05;;;;;;;;;;;;;;;-0.11;85.19;99028.34;10266330;28;19927;-78
2022/03/06 19:38:06;;;;;;;;;;;;;;;-0.13;82.01;99022.53;10189306;28;19927;-77
2022/03/06 19:43:07;;;;;;;;;;;;;;;-0.18;74.73;99027.69;10266347;28;19974;-79
2022/03/06 19:48:07;;;;;;;;;;;;;;;-0.18;71.38;99022.41;10330185;28;19997;-76
2022/03/06 19:53:07;;;;;;;;;;;;;;;-0.29;70.79;99022.22;10186188;28;20319;-80
2022/03/06 19:58:08;;;;;;;;;;;;;;;-0.33;72.67;99022.94;10254588;28;19925;-79
2022/03/06 20:03:09;;;;;;;;;;;;;;;-0.40;72.26;99024.88;10327226;28;20412;-79
2022/03/06 20:08:10;;;;;;;;;;;;;;;-0.45;72.65;99033.50;10272423;28;20045;-78
2022/03/06 20:13:12;;;;;;;;;;;;;;;-0.35;71.74;99032.91;10286984;28;19970;-78
2022/03/06 20:18:15;;;;;;;;;;;;;;;-0.35;72.73;99030.28;10338240;28;20393;-79
2022/03/06 20:23:15;;;;;;;;;;;;;;;-0.40;73.29;99038.88;10291910;28;19927;-80
2022/03/06 20:28:16;;;;;;;;;;;;;;;-0.44;76.88;99040.38;10289825;28;19991;-79
2022/03/06 20:33:18;;;;;;;;;;;;;;;-0.41;75.56;99034.63;10329477;28;19940;-80
2022/03/06 20:38:19;;;;;;;;;;;;;;;-0.32;80.20;99041.16;10248166;28;19927;-79
2022/03/06 20:43:19;;;;;;;;;;;;;;;-0.38;83.37;99050.00;10348305;28;19925;-79
2022/03/06 20:48:20;;;;;;;;;;;;;;;-0.57;80.07;99051.97;10261741;28;19934;-78
2022/03/06 20:53:22;;;;;;;;;;;;;;;-0.52;84.17;99050.50;10259879;28;19966;-80
2022/03/06 20:58:23;;;;;;;;;;;;;;;-0.66;79.87;99056.00;10332616;28;19978;-78
2022/03/06 21:03:29;;;;;;;;;;;;;;;-0.58;84.84;99058.28;10243243;28;19925;-81
2022/03/06 21:08:32;;;;;;;;;;;;;;;-0.58;86.25;99058.28;10261281;28;19925;-79
2022/03/06 21:13:32;;;;;;;;;;;;;;;-0.64;87.46;99059.22;10268162;28;19931;-78
2022/03/06 21:18:34;;;;;;;;;;;;;;;-0.59;87.29;99063.78;10201696;28;19933;-79
2022/03/06 21:23:38;;;;;;;;;;;;;;;-0.64;84.63;99066.31;10198085;28;19931;-77
2022/03/06 21:28:40;;;;;;;;;;;;;;;-0.70;87.79;99054.06;10259106;28;19925;-79
2022/03/06 21:33:41;;;;;;;;;;;;;;;-0.57;87.63;99056.44;10217368;28;19974;-78
2022/03/06 21:38:44;;;;;;;;;;;;;;;-0.62;90.58;99066.91;10253863;28;19923;-79
2022/03/06 21:43:49;;;;;;;;;;;;;;;-0.66;88.02;99066.53;10344815;28;19934;-79
2022/03/06 21:48:49;;;;;;;;;;;;;;;-0.63;88.93;99070.56;10278011;28;19923;-79
2022/03/06 21:53:51;;;;;;;;;;;;;;;-0.64;90.06;99077.69;10276018;28;19946;-82
2022/03/06 21:58:54;;;;;;;;;;;;;;;-0.73;88.17;99071.16;10261505;28;19937;-78
2022/03/06 22:03:55;;;;;;;;;;;;;;;-0.86;85.65;99071.34;10254911;28;19949;-78
2022/03/06 22:08:58;;;;;;;;;;;;;;;-1.02;81.91;99070.19;10283779;28;19923;-79
2022/03/06 22:13:59;;;;;;;;;;;;;;;-0.96;82.41;99069.28;10265011;28;20667;-80
2022/03/06 22:19:05;;;;;;;;;;;;;;;-0.91;85.05;99061.53;10250555;28;19928;-80
2022/03/06 22:24:11;;;;;;;;;;;;;;;-1.02;79.91;99069.41;10274989;28;19946;-82
2022/03/06 22:29:12;;;;;;;;;;;;;;;-1.06;80.05;99076.97;10207050;28;19977;-79
2022/03/06 22:34:13;;;;;;;;;;;;;;;-1.06;84.72;99074.34;10192897;28;19937;-78
2022/03/06 22:39:13;;;;;;;;;;;;;;;-1.03;88.78;99073.06;10196409;28;20363;-79
2022/03/06 22:44:15;;;;;;;;;;;;;;;-1.12;87.89;99069.97;10184324;28;19966;-79
2022/03/06 22:49:16;;;;;;;;;;;;;;;-1.10;88.53;99075.00;10290747;28;20128;-79
2022/03/06 22:54:24;;;;;;;;;;;;;;;-1.12;88.71;99071.78;10276236;28;19987;-78
2022/03/06 22:59:25;;;;;;;;;;;;;;;-1.18;93.39;99078.78;10202188;28;19962;-78
2022/03/06 23:09:45;;;;;;;;;;;;;;;-1.25;94.19;99075.44;10197702;28;20013;-78
2022/03/06 23:14:46;;;;;;;;;;;;;;;-1.15;92.41;99070.44;10257951;28;19935;-77
2022/03/06 23:19:47;;;;;;;;;;;;;;;-1.35;93.91;99072.56;10266524;28;20372;-77
2022/03/06 23:24:47;;;;;;;;;;;;;;;-1.41;93.55;99070.81;10192031;28;19942;-78
2022/03/06 23:29:48;;;;;;;;;;;;;;;-1.40;94.29;99069.81;10178792;28;19922;-80
2022/03/06 23:34:48;;;;;;;;;;;;;;;-1.34;94.51;99076.81;10201863;28;20376;-78
2022/03/06 23:39:48;;;;;;;;;;;;;;;-1.45;92.31;99073.94;10193831;28;19931;-79
2022/03/06 23:44:50;;;;;;;;;;;;;;;-1.47;96.37;99068.06;10236624;28;19910;-82
2022/03/06 23:49:51;;;;;;;;;;;;;;;-1.40;91.49;99078.50;10306998;28;20001;-81
2022/03/06 23:54:52;;;;;;;;;;;;;;;-1.42;93.86;99063.97;10300139;28;19942;-82
2022/03/06 23:59:53;;;;;;;;;;;;;;;-1.50;89.37;99078.25;10348153;28;19927;-82
